Time;durP1;ratioP1;P1;durP2;ratioP2;P2;SDS_P1;SDS_P2;PMS_P1;PMS_P2;Temp;Humidity;BMP_temperature;BMP_pressure;BME280_temperature;BME280_humidity;BME280_pressure;Samples;Min_cycle;Max_cycle;Signal;HPM_P1;HPM_P2
2024/05/02 00:00:11;;;;;;;1.63;1.35;;;17.80;45.40;;;13.64;68.21;93864.28;5290885;26;20001;-46
2024/05/02 00:02:37;;;;;;;2.25;1.60;;;17.80;45.60;;;13.67;69.50;93873.53;5280209;27;20002;-45
2024/05/02 00:05:03;;;;;;;3.00;1.63;;;17.70;45.70;;;13.55;69.12;93858.97;5284409;26;20013;-50
2024/05/02 00:07:31;;;;;;;2.45;1.50;;;17.70;46.40;;;13.60;69.14;93857.97;5286426;27;20030;-48
2024/05/02 00:09:58;;;;;;;2.60;1.73;;;17.70;45.80;;;13.53;67.65;93857.72;5277252;26;20012;-47
2024/05/02 00:12:23;;;;;;;3.35;1.67;;;17.70;45.90;;;13.54;67.22;93852.06;5273989;27;20001;-47
2024/05/02 00:14:49;;;;;;;2.38;1.60;;;17.70;45.80;;;13.58;65.96;93849.53;5289806;27;20023;-45
2024/05/02 00:17:15;;;;;;;5.60;1.90;;;17.70;45.80;;;13.63;66.29;93865.34;5277420;26;20006;-47
2024/05/02 00:19:41;;;;;;;2.40;1.70;;;17.70;45.80;;;13.63;66.71;93858.13;5284841;27;20006;-47
2024/05/02 00:22:07;;;;;;;4.03;1.52;;;17.70;45.80;;;13.65;65.49;93860.47;5273743;26;20021;-46
2024/05/02 00:24:33;;;;;;;2.50;1.95;;;17.70;45.70;;;13.63;72.01;93855.47;5268263;27;19998;-50
2024/05/02 00:26:58;;;;;;;2.08;1.80;;;17.70;46.00;;;13.53;70.02;93863.84;5268340;27;20005;-46
2024/05/02 00:29:24;;;;;;;1.90;1.70;;;17.70;46.20;;;13.58;69.45;93857.53;5274567;26;20013;-45
2024/05/02 00:31:50;;;;;;;3.47;1.83;;;17.70;46.20;;;13.65;68.60;93857.81;5268264;26;20472;-45
2024/05/02 00:34:16;;;;;;;2.75;1.60;;;17.70;46.20;;;13.62;66.47;93864.59;5267521;27;20564;-50
2024/05/02 00:36:42;;;;;;;3.63;1.80;;;17.70;46.10;;;13.59;69.71;93856.44;5267939;26;20021;-48
2024/05/02 00:39:08;;;;;;;5.95;1.98;;;17.70;46.20;;;13.63;69.48;93857.34;5266979;27;20111;-47
2024/05/02 00:41:34;;;;;;;1.77;1.55;;;17.70;46.30;;;13.60;69.55;93858.78;5268081;27;20010;-50
2024/05/02 00:44:00;;;;;;;4.80;1.90;;;17.70;46.40;;;13.58;67.90;93857.53;5271391;27;20050;-50
2024/05/02 00:46:26;;;;;;;4.32;2.13;;;17.70;46.30;;;13.60;67.55;93858.78;5266689;27;20346;-46
2024/05/02 00:48:53;;;;;;;2.35;2.10;;;17.70;46.10;;;13.63;64.05;93842.09;5269063;26;20014;-49
2024/05/02 00:51:21;;;;;;;2.45;1.88;;;17.80;45.90;;;13.67;69.52;93844.13;5268763;27;20479;-52
2024/05/02 00:53:49;;;;;;;3.30;1.85;;;17.80;46.20;;;13.65;72.92;93839.06;5263451;27;21836;-50
2024/05/02 00:56:17;;;;;;;2.63;1.90;;;17.80;46.60;;;13.50;71.42;93853.81;5264643;27;20015;-45
2024/05/02 00:58:44;;;;;;;3.65;1.65;;;17.70;46.60;;;13.52;71.92;93851.59;5271040;27;20021;-45
2024/05/02 01:01:10;;;;;;;2.33;1.95;;;17.70;46.70;;;13.54;66.14;93852.06;5294541;26;20010;-50
2024/05/02 01:03:36;;;;;;;3.60;1.80;;;17.70;46.50;;;13.55;68.61;93853.63;5259224;26;20013;-51
2024/05/02 01:06:02;;;;;;;4.05;1.80;;;17.70;47.00;;;13.56;65.36;93851.72;5271260;27;20001;-49
2024/05/02 01:08:27;;;;;;;3.55;1.80;;;17.70;46.20;;;13.57;64.54;93846.06;5273166;27;20025;-50
2024/05/02 01:10:55;;;;;;;2.47;1.95;;;17.70;46.00;;;13.60;67.69;93852.63;5266219;27;20006;-49
2024/05/02 01:13:21;;;;;;;2.25;1.95;;;17.70;46.20;;;13.63;65.67;93844.75;5267822;27;20021;-46
2024/05/02 01:15:47;;;;;;;2.90;1.98;;;17.70;46.10;;;13.68;66.00;93843.00;5266328;27;20010;-45
2024/05/02 01:18:13;;;;;;;2.72;2.00;;;17.70;46.20;;;13.68;65.91;93838.44;5267628;27;20625;-45
2024/05/02 01:20:39;;;;;;;1.60;1.33;;;17.70;46.10;;;13.67;64.48;93838.75;5267696;27;20016;-46
2024/05/02 01:23:05;;;;;;;2.90;1.67;;;17.70;46.00;;;13.69;63.28;93839.19;5260762;27;20053;-49
2024/05/02 01:25:30;;;;;;;2.60;1.60;;;17.80;45.80;;;13.71;63.23;93831.66;5267200;27;20005;-47
2024/05/02 01:27:56;;;;;;;2.17;1.60;;;17.80;45.70;;;13.73;62.07;93837.47;5266220;27;20002;-46
2024/05/02 01:30:22;;;;;;;3.00;1.50;;;17.80;45.60;;;13.73;61.82;93838.25;5267455;27;20009;-50
2024/05/02 01:32:48;;;;;;;3.58;1.60;;;17.80;45.40;;;13.74;61.63;93828.31;5266620;27;20005;-51
2024/05/02 01:35:14;;;;;;;3.03;1.50;;;17.80;45.30;;;13.74;61.62;93836.34;5267191;27;20479;-47
2024/05/02 01:37:41;;;;;;;2.92;1.83;;;17.80;45.20;;;13.73;61.29;93838.25;5267411;27;20492;-47
2024/05/02 01:40:08;;;;;;;2.00;1.60;;;17.80;45.10;;;13.73;61.39;93840.91;5265432;27;20508;-48
2024/05/02 01:42:33;;;;;;;3.08;1.73;;;17.80;45.10;;;13.67;62.71;93852.91;5267054;27;20006;-45
2024/05/02 01:44:59;;;;;;;2.13;1.88;;;17.80;45.00;;;13.62;68.11;93858.44;5265849;27;20028;-47
2024/05/02 01:47:25;;;;;;;4.50;1.60;;;17.80;45.40;;;13.50;66.12;93851.13;5267512;26;19998;-50
2024/05/02 01:49:51;;;;;;;2.75;1.90;;;17.70;45.50;;;13.43;68.05;93853.53;5269437;27;20390;-50
2024/05/02 01:52:17;;;;;;;3.53;1.90;;;17.60;45.60;;;13.35;67.86;93857.03;5265700;27;20014;-46
2024/05/02 01:54:42;;;;;;;4.45;2.03;;;17.60;46.40;;;13.26;69.97;93856.31;5267889;27;20350;-52
2024/05/02 01:57:08;;;;;;;3.58;1.58;;;17.50;46.00;;;13.20;69.12;93848.44;5269557;27;20010;-47
2024/05/02 01:59:34;;;;;;;3.85;1.98;;;17.50;46.20;;;13.06;72.18;93850.53;5269555;27;20010;-45
2024/05/02 02:02:00;;;;;;;5.38;2.08;;;17.40;46.40;;;13.03;71.28;93850.41;5270654;26;20092;-46
2024/05/02 02:04:26;;;;;;;3.70;2.13;;;17.20;46.60;;;12.95;72.73;93855.47;5269500;27;20002;-45
2024/05/02 02:06:52;;;;;;;3.25;2.33;;;17.20;46.90;;;12.86;75.39;93854.72;5270029;27;20017;-50
2024/05/02 02:09:18;;;;;;;4.68;2.55;;;17.10;47.30;;;12.82;77.31;93861.03;5263035;27;20007;-46
2024/05/02 02:11:43;;;;;;;3.00;2.35;;;17.00;47.70;;;12.71;76.89;93856.03;5270139;27;20017;-50
2024/05/02 02:14:09;;;;;;;6.15;2.45;;;16.90;47.80;;;12.61;79.00;93852.94;5272220;27;20006;-45
2024/05/02 02:16:35;;;;;;;6.50;2.72;;;16.80;48.10;;;12.57;80.10;93855.47;5268629;27;20010;-45
2024/05/02 02:19:01;;;;;;;8.65;2.80;;;16.70;48.50;;;12.49;80.96;93856.25;5270022;27;20021;-49
2024/05/02 02:21:27;;;;;;;6.45;2.90;;;16.70;48.80;;;12.38;82.38;93865.69;5267098;27;20006;-52
2024/05/02 02:23:52;;;;;;;6.40;3.47;;;16.60;49.10;;;12.30;83.39;93859.28;5263820;27;20512;-50
2024/05/02 02:26:18;;;;;;;5.43;3.00;;;16.50;49.40;;;12.22;84.24;93858.19;5270198;27;20536;-49
2024/05/02 02:28:44;;;;;;;7.85;3.33;;;16.40;49.70;;;12.14;84.17;93858.97;5268592;27;20013;-48
2024/05/02 02:31:10;;;;;;;9.75;3.50;;;16.30;50.00;;;12.05;88.64;93850.19;5270155;27;20020;-47
2024/05/02 02:33:36;;;;;;;5.00;3.08;;;16.30;50.40;;;11.90;92.90;93862.13;5265584;27;20087;-49
2024/05/02 02:36:03;;;;;;;5.78;3.28;;;16.20;50.80;;;11.85;93.06;93864.19;5270449;27;20029;-48
2024/05/02 02:38:28;;;;;;;6.53;3.88;;;16.10;51.10;;;11.71;100.00;93865.06;5269302;27;20096;-48
2024/05/02 02:40:54;;;;;;;12.73;4.15;;;16.00;51.50;;;11.70;100.00;93846.72;5267412;27;20017;-45
2024/05/02 02:43:20;;;;;;;6.15;3.92;;;15.90;52.00;;;11.65;100.00;93844.97;5269475;27;20013;-49
2024/05/02 02:45:46;;;;;;;6.88;3.78;;;15.80;52.30;;;11.60;100.00;93853.16;5268580;27;20084;-47
2024/05/02 02:48:12;;;;;;;8.00;4.00;;;15.80;52.70;;;11.52;100.00;93845.91;5270022;27;20009;-46
2024/05/02 02:50:38;;;;;;;8.13;3.95;;;15.70;53.00;;;11.46;100.00;93842.59;5269686;27;20017;-47
2024/05/02 02:53:04;;;;;;;8.50;4.10;;;15.60;53.20;;;11.37;100.00;93835.69;5253802;27;20013;-50
2024/05/02 02:55:31;;;;;;;7.38;3.50;;;15.60;53.50;;;11.27;100.00;93826.91;5269462;27;20002;-48
2024/05/02 02:57:56;;;;;;;8.05;3.47;;;15.60;53.80;;;11.16;100.00;93835.53;5274759;27;20015;-46
2024/05/02 03:00:22;;;;;;;8.35;4.20;;;15.50;54.00;;;11.13;100.00;93834.25;5301210;27;20005;-49
2024/05/02 03:02:48;;;;;;;10.48;4.25;;;15.40;54.20;;;11.10;100.00;93837.53;5303800;26;20017;-47
2024/05/02 03:05:14;;;;;;;11.23;4.15;;;15.40;54.40;;;11.05;100.00;93827.00;5296457;26;20086;-47
2024/05/02 03:07:40;;;;;;;7.20;4.00;;;15.30;54.50;;;11.00;100.00;93830.63;5302558;26;20044;-50
2024/05/02 03:10:07;;;;;;;10.00;4.97;;;15.30;54.70;;;10.95;100.00;93832.63;5290411;27;20005;-46
2024/05/02 03:12:34;;;;;;;6.72;4.00;;;15.20;55.00;;;10.84;100.00;93835.59;5286890;26;20001;-48
2024/05/02 03:15:01;;;;;;;11.32;4.03;;;15.20;55.10;;;10.72;100.00;93832.72;5289941;26;20678;-51
2024/05/02 03:17:26;;;;;;;7.20;3.90;;;15.00;55.10;;;10.69;100.00;93835.22;5282159;27;20006;-48
2024/05/02 03:19:52;;;;;;;10.50;4.45;;;15.00;55.30;;;10.65;100.00;93838.47;5279267;27;20032;-46
2024/05/02 03:22:18;;;;;;;5.10;4.07;;;14.90;55.40;;;10.60;100.00;93832.50;5276518;26;20052;-48
2024/05/02 03:24:44;;;;;;;6.80;3.90;;;14.90;55.60;;;10.57;100.00;93825.13;5276842;27;20009;-48
2024/05/02 03:27:10;;;;;;;6.43;4.07;;;14.80;55.80;;;10.53;100.00;93824.16;5285747;26;23476;-49
2024/05/02 03:29:35;;;;;;;6.40;3.95;;;14.80;56.00;;;10.47;100.00;93830.72;5272834;27;20002;-46
2024/05/02 03:32:01;;;;;;;8.50;4.20;;;14.80;56.10;;;10.38;100.00;93828.00;5286969;26;20008;-48
2024/05/02 03:34:27;;;;;;;7.43;4.25;;;14.70;56.20;;;10.21;100.00;93826.00;5282003;27;20014;-51
2024/05/02 03:36:53;;;;;;;7.43;4.55;;;14.60;56.20;;;10.17;100.00;93831.13;5282183;26;20016;-48
2024/05/02 03:39:19;;;;;;;6.85;4.35;;;14.60;56.30;;;10.18;100.00;93837.25;5283604;27;20014;-46
2024/05/02 03:41:46;;;;;;;15.68;4.78;;;14.50;56.60;;;10.14;100.00;93822.97;5279922;27;20010;-46
2024/05/02 03:44:12;;;;;;;7.05;4.32;;;14.50;56.80;;;10.21;100.00;93828.66;5283530;26;20017;-49
2024/05/02 03:46:38;;;;;;;10.98;4.40;;;14.50;57.10;;;10.26;100.00;93825.91;5287120;27;20020;-48
2024/05/02 03:49:04;;;;;;;8.48;4.72;;;14.50;57.10;;;10.30;100.00;93824.19;5288028;26;20017;-46
2024/05/02 03:51:30;;;;;;;10.82;4.93;;;14.50;57.20;;;10.25;100.00;93821.66;5278019;26;20017;-49
2024/05/02 03:53:56;;;;;;;10.13;4.47;;;14.50;57.30;;;10.27;100.00;93819.47;5277825;26;20014;-46
2024/05/02 03:56:22;;;;;;;6.80;4.40;;;14.50;57.40;;;10.28;100.00;93818.41;5282064;27;20009;-51
2024/05/02 03:58:48;;;;;;;10.05;5.35;;;14.50;57.40;;;10.28;100.00;93823.72;5283560;27;20023;-49
2024/05/02 04:01:14;;;;;;;8.52;4.90;;;14.50;57.50;;;10.25;100.00;93819.00;5297156;26;20012;-48
2024/05/02 04:03:40;;;;;;;8.02;4.40;;;14.50;57.60;;;10.25;100.00;93820.84;5278830;27;20002;-49
2024/05/02 04:06:10;;;;;;;10.50;4.40;;;14.50;57.70;;;10.26;100.00;93830.41;5292371;26;20121;-46
2024/05/02 04:08:36;;;;;;;7.72;4.82;;;14.50;57.90;;;10.21;100.00;93828.66;5275143;27;20389;-47
2024/05/02 04:11:06;;;;;;;12.13;5.25;;;14.50;58.00;;;10.27;100.00;93832.78;5275834;27;20013;-51
2024/05/02 04:13:31;;;;;;;8.23;4.95;;;14.50;58.20;;;10.33;100.00;93831.56;5285383;27;20017;-51
2024/05/02 04:15:57;;;;;;;9.10;4.50;;;14.50;58.20;;;10.35;100.00;93828.63;5280368;26;20029;-53
2024/05/02 04:18:23;;;;;;;8.68;4.72;;;14.60;58.30;;;10.36;100.00;93832.84;5283822;26;20006;-48
2024/05/02 04:20:50;;;;;;;6.35;4.70;;;14.60;58.40;;;10.40;100.00;93831.13;5279011;27;20013;-46
2024/05/02 04:23:17;;;;;;;9.40;4.82;;;14.60;58.50;;;10.46;100.00;93829.91;5296660;26;20010;-49
2024/05/02 04:25:42;;;;;;;9.52;5.72;;;14.70;58.60;;;10.52;100.00;93827.91;5327661;21;20017;-55
2024/05/02 04:28:08;;;;;;;9.15;4.60;;;14.70;58.60;;;10.55;100.00;93836.06;5311937;26;20088;-56
2024/05/02 04:30:34;;;;;;;5.82;4.15;;;14.80;58.70;;;10.58;100.00;93835.47;5326115;26;20008;-51
2024/05/02 04:33:01;;;;;;;9.50;4.78;;;14.80;58.90;;;10.63;100.00;93834.56;5308084;26;20005;-52
2024/05/02 04:35:28;;;;;;;9.10;5.13;;;14.90;58.90;;;10.63;100.00;93837.22;5314297;26;20024;-56
2024/05/02 04:37:54;;;;;;;14.45;5.13;;;14.90;59.00;;;10.75;100.00;93836.63;5268282;27;20364;-55
2024/05/02 04:40:20;;;;;;;12.93;5.93;;;15.00;59.10;;;10.84;100.00;93830.25;5267242;27;20061;-51
2024/05/02 04:42:45;;;;;;;11.75;5.50;;;15.10;59.10;;;10.94;100.00;93828.41;5268211;27;20009;-51
2024/05/02 04:45:13;;;;;;;13.40;5.90;;;15.20;59.20;;;11.03;100.00;93834.53;5266734;27;20489;-51
2024/05/02 04:47:39;;;;;;;11.45;7.03;;;15.30;59.30;;;11.10;100.00;93826.88;5268076;27;20025;-53
2024/05/02 04:50:06;;;;;;;11.77;6.57;;;15.40;59.30;;;11.17;100.00;93824.53;5268645;27;20025;-51
2024/05/02 04:52:32;;;;;;;13.48;6.30;;;15.50;59.40;;;11.24;100.00;93814.19;5266973;27;20005;-52
2024/05/02 04:54:58;;;;;;;13.68;6.50;;;15.60;59.40;;;11.34;100.00;93815.78;5267964;27;20024;-50
2024/05/02 04:57:24;;;;;;;11.52;6.05;;;15.70;59.50;;;11.44;100.00;93812.03;5267050;27;20043;-51
2024/05/02 04:59:50;;;;;;;13.70;5.88;;;15.80;59.50;;;11.52;100.00;93812.03;5267885;27;20092;-50
2024/05/02 05:02:16;;;;;;;11.85;6.35;;;15.80;59.60;;;11.62;100.00;93821.59;5268191;27;20046;-50
2024/05/02 05:04:42;;;;;;;10.35;6.25;;;15.90;59.60;;;11.70;100.00;93822.72;5270222;27;20005;-50
2024/05/02 05:07:08;;;;;;;10.23;5.63;;;15.90;59.60;;;11.76;100.00;93827.59;5268002;27;20016;-50
2024/05/02 05:09:34;;;;;;;10.48;5.47;;;16.10;59.70;;;11.84;100.00;93834.00;5265438;27;20009;-55
2024/05/02 05:12:01;;;;;;;13.27;6.13;;;16.10;59.70;;;11.88;100.00;93829.66;5286579;27;20025;-51
2024/05/02 05:14:27;;;;;;;12.00;5.88;;;16.20;59.80;;;11.97;100.00;93841.13;5263602;27;20025;-53
2024/05/02 05:16:55;;;;;;;9.57;5.70;;;16.30;59.80;;;11.99;100.00;93846.13;5266606;27;20016;-52
2024/05/02 05:19:20;;;;;;;12.65;6.03;;;16.40;59.80;;;12.08;100.00;93848.78;5267483;27;20473;-52
2024/05/02 05:21:46;;;;;;;8.95;6.07;;;16.40;59.70;;;12.12;100.00;93849.72;5265732;27;20006;-53
2024/05/02 05:24:12;;;;;;;12.90;6.35;;;16.50;59.70;;;12.15;100.00;93860.53;5264761;27;20014;-49
2024/05/02 05:26:39;;;;;;;14.00;5.68;;;16.50;59.70;;;12.20;100.00;93860.38;5266324;26;20006;-50
2024/05/02 05:29:05;;;;;;;27.08;6.45;;;16.50;59.70;;;12.26;100.00;93867.13;5267343;27;20348;-50
2024/05/02 05:31:30;;;;;;;19.38;6.15;;;16.60;59.70;;;12.32;100.00;93862.41;5272516;27;20023;-53
2024/05/02 05:33:56;;;;;;;9.98;5.55;;;16.60;59.70;;;12.39;100.00;93872.63;5266663;27;20054;-50
2024/05/02 05:36:22;;;;;;;17.17;6.38;;;16.70;59.70;;;12.44;100.00;93864.41;5271814;27;20006;-53
2024/05/02 05:38:48;;;;;;;10.57;6.30;;;16.80;59.80;;;12.52;100.00;93866.31;5267080;27;20014;-55
2024/05/02 05:41:14;;;;;;;13.57;6.15;;;16.80;59.80;;;12.60;100.00;93865.50;5266870;27;20038;-52
2024/05/02 05:43:39;;;;;;;13.95;6.45;;;16.90;59.90;;;12.69;100.00;93860.94;5266997;27;20014;-50
2024/05/02 05:46:07;;;;;;;15.18;6.35;;;17.00;59.90;;;12.76;100.00;93857.75;5266274;27;20006;-51
2024/05/02 05:48:33;;;;;;;15.15;6.15;;;17.10;60.00;;;12.83;100.00;93855.38;5267104;27;20020;-53
2024/05/02 05:50:59;;;;;;;11.23;6.45;;;17.20;60.00;;;12.92;100.00;93858.00;5266259;27;20025;-50
2024/05/02 05:53:25;;;;;;;10.93;5.65;;;17.30;60.00;;;13.02;100.00;93854.97;5267352;26;20013;-50
2024/05/02 05:55:53;;;;;;;12.60;6.68;;;17.40;60.00;;;13.11;100.00;93849.59;5267392;27;20017;-49
2024/05/02 05:58:19;;;;;;;13.52;6.30;;;17.60;60.20;;;13.19;100.00;93856.78;5266312;27;20005;-52
2024/05/02 06:00:45;;;;;;;10.77;6.18;;;17.60;60.00;;;13.25;100.00;93855.50;5266726;26;20024;-52
2024/05/02 06:03:15;;;;;;;13.82;6.97;;;17.70;60.00;;;13.33;100.00;93856.59;5266196;27;20010;-51
2024/05/02 06:05:42;;;;;;;11.13;6.95;;;17.80;60.20;;;13.36;100.00;93847.91;5266581;27;20354;-54
2024/05/02 06:08:09;;;;;;;16.42;7.18;;;17.90;60.10;;;13.41;100.00;93847.72;5267126;27;20415;-51
2024/05/02 06:10:35;;;;;;;11.82;6.70;;;17.90;60.00;;;13.45;100.00;93835.28;5265255;27;20017;-53
2024/05/02 06:13:01;;;;;;;11.60;7.15;;;18.00;60.00;;;13.51;100.00;93828.63;5266800;27;20354;-53
2024/05/02 06:15:28;;;;;;;15.27;7.45;;;18.00;60.70;;;13.58;100.00;93822.75;5265241;27;20014;-57
2024/05/02 06:17:55;;;;;;;12.23;6.55;;;18.10;59.90;;;13.68;100.00;93824.28;5266154;27;20017;-52
2024/05/02 06:20:24;;;;;;;11.50;6.40;;;18.20;59.90;;;13.76;100.00;93818.84;5264777;27;20032;-50
2024/05/02 06:22:50;;;;;;;15.88;6.50;;;18.20;59.70;;;13.84;100.00;93814.53;5265772;27;20013;-54
2024/05/02 06:25:16;;;;;;;16.27;6.72;;;18.40;59.60;;;13.93;100.00;93815.25;5266735;27;20013;-53
2024/05/02 06:27:42;;;;;;;11.20;6.68;;;18.50;59.50;;;14.03;100.00;93814.06;5263767;27;20005;-54
2024/05/02 06:30:10;;;;;;;14.68;7.30;;;18.60;59.50;;;14.06;100.00;93816.06;5266280;27;20434;-53
2024/05/02 06:32:36;;;;;;;14.30;6.03;;;18.70;59.30;;;14.09;100.00;93824.22;5266267;27;20006;-51
2024/05/02 06:35:02;;;;;;;17.05;6.57;;;18.80;59.20;;;14.19;100.00;93822.25;5270751;27;20014;-52
2024/05/02 06:37:28;;;;;;;18.25;7.38;;;19.00;59.10;;;14.27;100.00;93821.41;5270074;27;20434;-50
2024/05/02 06:39:54;;;;;;;14.57;7.00;;;19.00;58.80;;;14.33;100.00;93826.22;5268263;27;20010;-49
2024/05/02 06:42:20;;;;;;;15.65;7.15;;;19.20;58.70;;;14.33;100.00;93825.44;5269795;27;20020;-49
2024/05/02 06:44:46;;;;;;;12.95;6.38;;;19.30;58.50;;;14.46;100.00;93821.69;5269617;27;20476;-51
2024/05/02 06:47:12;;;;;;;15.32;7.38;;;19.40;58.40;;;14.59;100.00;93825.19;5268319;27;20091;-53
2024/05/02 06:49:38;;;;;;;14.70;6.80;;;19.60;58.20;;;14.71;100.00;93829.81;5269131;26;20006;-50
2024/05/02 06:52:04;;;;;;;18.60;6.28;;;19.70;58.60;;;14.88;100.00;93834.16;5295584;26;20029;-52
2024/05/02 06:54:30;;;;;;;17.38;6.53;;;19.80;57.80;;;14.94;100.00;93827.47;5269631;27;20086;-49
2024/05/02 06:56:56;;;;;;;12.18;6.88;;;19.80;57.60;;;14.99;100.00;93824.59;5269304;27;20017;-53
2024/05/02 06:59:22;;;;;;;14.63;6.75;;;19.90;57.40;;;15.08;100.00;93821.81;5268411;27;20005;-50
2024/05/02 07:01:47;;;;;;;11.55;6.30;;;20.00;57.20;;;15.15;99.41;93816.66;5269186;27;20013;-50
2024/05/02 07:04:13;;;;;;;12.65;6.60;;;20.10;57.10;;;15.30;99.11;93824.03;5268303;27;20105;-50
2024/05/02 07:06:39;;;;;;;12.18;6.50;;;20.20;56.90;;;15.45;97.54;93817.97;5268647;27;20021;-49
2024/05/02 07:09:05;;;;;;;17.60;6.32;;;20.40;56.70;;;15.64;96.70;93821.97;5267681;27;20024;-54
2024/05/02 07:11:31;;;;;;;13.80;6.82;;;20.60;56.40;;;15.83;94.30;93824.88;5264603;27;20024;-48
2024/05/02 07:13:56;;;;;;;13.57;5.57;;;20.80;56.00;;;15.93;93.15;93821.69;5269295;27;20021;-48
2024/05/02 07:16:22;;;;;;;10.45;5.97;;;21.10;55.60;;;16.15;92.04;93812.31;5268235;27;20071;-48
2024/05/02 07:18:48;;;;;;;11.85;6.00;;;21.40;55.30;;;16.42;90.93;93807.25;5268494;27;20082;-55
2024/05/02 07:21:15;;;;;;;14.20;7.18;;;21.70;54.80;;;16.57;88.43;93801.13;5268463;27;20477;-52
2024/05/02 07:23:41;;;;;;;16.00;6.68;;;22.10;54.20;;;16.74;86.90;93788.50;5270757;26;20013;-49
2024/05/02 07:26:07;;;;;;;14.98;6.60;;;22.50;53.60;;;16.84;86.36;93798.78;5281102;26;20009;-50
2024/05/02 07:28:33;;;;;;;10.40;6.43;;;22.70;52.90;;;16.85;86.11;93797.63;5280510;27;20029;-53
2024/05/02 07:30:59;;;;;;;13.65;6.07;;;22.80;52.40;;;17.10;84.87;93804.38;5276961;27;20014;-49
2024/05/02 07:33:25;;;;;;;12.23;5.93;;;22.90;52.20;;;17.06;83.97;93808.13;5273169;27;20041;-50
2024/05/02 07:35:50;;;;;;;9.88;6.28;;;22.90;51.80;;;16.85;84.53;93798.41;5276734;27;20017;-49
2024/05/02 07:38:17;;;;;;;10.02;6.57;;;22.90;51.40;;;16.87;84.89;93806.16;5276030;27;20465;-50
2024/05/02 07:40:43;;;;;;;9.13;6.00;;;22.80;51.20;;;16.93;83.73;93806.66;5284883;26;20034;-50
2024/05/02 07:43:09;;;;;;;12.63;6.93;;;22.80;51.20;;;16.80;84.66;93803.28;5277281;27;20018;-49
2024/05/02 07:45:35;;;;;;;13.98;6.28;;;22.70;51.10;;;16.96;84.10;93803.28;5285649;27;20024;-48
2024/05/02 07:48:07;;;;;;;8.07;5.95;;;22.70;51.00;;;16.63;85.73;93804.34;5289048;27;20010;-52
2024/05/02 07:50:33;;;;;;;;;;;22.60;51.00;;;16.55;86.29;93805.31;5285144;27;20010;-51
2024/05/02 07:53:03;;;;;;;10.18;5.72;;;22.40;50.90;;;16.64;86.57;93809.41;5285066;26;19927;-49
2024/05/02 07:55:31;;;;;;;14.55;6.10;;;22.40;51.00;;;16.92;85.57;93803.19;5279548;26;20084;-52
2024/05/02 07:57:57;;;;;;;12.48;5.38;;;22.50;51.10;;;17.14;84.44;93807.16;5282607;27;20009;-55
2024/05/02 08:00:23;;;;;;;8.98;5.20;;;22.70;51.20;;;17.19;82.76;93803.44;5288766;27;20021;-52
2024/05/02 08:02:49;;;;;;;10.18;5.53;;;22.80;50.90;;;17.26;81.88;93814.34;5284908;27;20025;-50
2024/05/02 08:05:16;;;;;;;14.63;5.57;;;22.90;50.70;;;17.34;81.92;93806.09;5284405;27;20016;-51
2024/05/02 08:07:42;;;;;;;12.43;5.82;;;22.90;50.60;;;17.22;82.12;93813.50;5281461;27;20453;-48
2024/05/02 08:10:08;;;;;;;11.18;5.18;;;23.00;50.30;;;17.25;82.40;93818.97;5272076;27;20468;-49
2024/05/02 08:12:33;;;;;;;12.73;5.57;;;23.10;50.20;;;17.31;81.48;93819.47;5280260;27;20021;-50
2024/05/02 08:14:59;;;;;;;9.32;5.60;;;23.20;50.00;;;17.39;81.80;93823.09;5289702;27;20017;-52
2024/05/02 08:17:25;;;;;;;10.25;5.20;;;23.40;49.80;;;17.66;80.24;93814.09;5278685;26;20024;-51
2024/05/02 08:19:51;;;;;;;12.23;6.60;;;23.60;49.50;;;17.63;79.17;93811.34;5291241;27;20009;-54
2024/05/02 08:22:17;;;;;;;10.52;5.80;;;23.80;49.00;;;17.85;78.31;93821.47;5279834;27;20492;-50
2024/05/02 08:24:43;;;;;;;10.13;5.75;;;23.90;48.70;;;17.94;77.12;93815.88;5285798;26;20013;-50
2024/05/02 08:27:09;;;;;;;10.13;5.53;;;23.90;48.70;;;17.90;77.97;93817.72;5282673;26;20010;-50
2024/05/02 08:29:35;;;;;;;13.95;6.40;;;23.90;48.60;;;17.66;79.08;93821.41;5281401;27;20095;-53
2024/05/02 08:32:01;;;;;;;10.57;6.53;;;23.80;48.50;;;17.72;79.22;93822.69;5290181;26;20021;-54
2024/05/02 08:34:27;;;;;;;11.15;5.72;;;23.70;48.60;;;17.88;78.47;93823.44;5268066;27;20021;-52
2024/05/02 08:36:52;;;;;;;13.00;5.80;;;23.60;48.60;;;18.06;77.96;93820.34;5287813;27;20348;-51
2024/05/02 08:39:18;;;;;;;11.98;5.82;;;23.80;48.70;;;18.23;76.44;93819.91;5331673;26;20009;-54
2024/05/02 08:42:03;;;;;;;13.10;6.70;;;23.90;48.60;;;18.29;76.66;93821.19;5295987;26;20057;-53
2024/05/02 08:44:33;;;;;;;14.15;5.38;;;24.20;48.40;;;18.24;76.13;93818.81;5281296;26;20622;-50
2024/05/02 08:47:07;;;;;;;12.07;6.05;;;24.40;47.80;;;18.35;76.03;93821.69;5266222;26;20021;-54
2024/05/02 08:49:36;;;;;;;10.82;5.07;;;24.70;47.50;;;18.42;75.44;93822.59;5267694;26;20483;-51
2024/05/02 08:52:05;;;;;;;10.38;6.10;;;24.80;47.10;;;18.58;75.30;93821.72;5260189;27;20009;-55
2024/05/02 08:54:35;;;;;;;9.80;4.93;;;24.90;47.00;;;18.78;74.19;93823.28;5292789;26;20014;-53
2024/05/02 08:57:06;;;;;;;6.53;5.00;;;25.00;46.80;;;18.94;73.42;93820.47;5262232;27;20046;-55
2024/05/02 08:59:36;;;;;;;12.15;5.72;;;25.20;46.60;;;19.10;71.58;93814.94;5306106;26;20024;-51
2024/05/02 09:02:02;;;;;;;9.95;5.50;;;25.50;46.40;;;19.08;71.42;93818.00;5268190;27;20017;-50
2024/05/02 09:04:28;;;;;;;8.45;5.20;;;25.50;45.90;;;19.15;70.01;93828.94;5266841;27;20016;-57
2024/05/02 09:06:54;;;;;;;11.02;6.45;;;25.70;45.60;;;19.13;70.43;93833.13;5267513;27;20009;-51
2024/05/02 09:09:20;;;;;;;12.80;5.75;;;25.80;45.40;;;19.13;70.41;93830.41;5266015;27;20020;-51
2024/05/02 09:11:59;;;;;;;9.52;6.15;;;25.80;45.10;;;19.22;71.28;93824.78;5267956;27;20024;-53
2024/05/02 09:14:27;;;;;;;10.82;5.90;;;25.80;45.00;;;19.25;70.34;93832.16;5263689;27;20480;-48
2024/05/02 09:16:54;;;;;;;10.43;5.70;;;25.90;44.90;;;19.32;70.83;93840.34;5264901;27;20121;-50
2024/05/02 09:19:22;;;;;;;10.30;6.43;;;25.90;44.80;;;19.31;69.34;93836.88;5267344;27;20070;-51
2024/05/02 09:21:48;;;;;;;11.38;6.18;;;26.10;44.60;;;19.24;69.92;93841.38;5266478;27;20069;-52
2024/05/02 09:24:16;;;;;;;9.73;5.78;;;26.20;44.20;;;19.73;69.17;93846.78;5267841;27;20373;-52
2024/05/02 09:26:41;;;;;;;14.15;5.82;;;26.60;44.60;;;20.04;68.25;93850.31;5267350;27;20084;-50
2024/05/02 09:29:10;;;;;;;11.05;6.43;;;26.80;43.70;;;20.03;66.26;93848.75;5266170;27;20930;-50
2024/05/02 09:31:39;;;;;;;6.50;5.07;;;26.80;43.40;;;20.08;65.83;93846.47;5267277;27;20010;-55
2024/05/02 09:34:09;;;;;;;10.85;6.00;;;26.60;43.40;;;20.10;66.28;93844.19;5279327;27;20100;-52
2024/05/02 09:36:43;;;;;;;11.00;6.45;;;26.60;43.50;;;20.10;65.42;93841.50;5272260;27;20080;-55
2024/05/02 09:39:11;;;;;;;10.20;6.07;;;26.60;43.20;;;20.31;65.30;93842.94;5255654;27;20442;-54
2024/05/02 09:41:56;;;;;;;10.32;6.43;;;26.90;43.00;;;20.38;64.35;93840.28;5267078;27;20010;-56
2024/05/02 09:44:27;;;;;;;13.02;6.13;;;27.10;42.70;;;20.61;63.38;93842.91;5258915;27;20014;-56
2024/05/02 09:47:22;;;;;;;11.20;5.63;;;27.20;42.60;;;20.74;63.19;93851.53;5320674;26;20062;-53
2024/05/02 09:50:01;;;;;;;12.30;6.38;;;27.40;42.40;;;20.77;63.07;93848.09;5290036;26;20010;-57
2024/05/02 09:52:27;;;;;;;9.77;6.15;;;27.50;42.00;;;21.02;61.69;93846.41;5281859;26;20364;-58
2024/05/02 09:54:56;;;;;;;11.63;6.63;;;27.60;41.70;;;21.37;61.55;93842.50;5266976;27;20002;-57
2024/05/02 09:57:23;;;;;;;11.52;6.00;;;27.90;41.70;;;21.78;59.09;93842.41;5291894;26;20014;-57
2024/05/02 09:59:52;;;;;;;10.18;6.05;;;28.40;41.30;;;22.08;58.02;93838.69;5266691;27;20021;-55
2024/05/02 10:02:21;;;;;;;10.52;6.63;;;28.80;40.70;;;22.50;56.36;93837.31;5267325;27;20001;-59
2024/05/02 10:04:51;;;;;;;11.07;5.60;;;29.50;39.90;;;23.13;54.31;93832.47;5265773;27;22183;-59
2024/05/02 10:07:39;;;;;;;9.38;5.65;;;30.00;39.20;;;23.62;52.79;93834.41;5266695;27;20018;-59
2024/05/02 10:10:11;;;;;;;8.13;6.35;;;30.60;38.60;;;23.84;50.70;93828.97;5266466;27;20021;-58